sensor_id;sensor_type;location;lat;lon;timestamp;temperature;humidity
67279;DHT22;54193;53.746;10.058;2022-09-30T00:00:24;8.14;95.88
67279;DHT22;54193;53.746;10.058;2022-09-30T00:03:10;8.24;95.87
67279;DHT22;54193;53.746;10.058;2022-09-30T00:05:57;8.20;96.09
67279;DHT22;54193;53.746;10.058;2022-09-30T00:08:43;8.06;95.90
67279;DHT22;54193;53.746;10.058;2022-09-30T00:11:31;8.20;96.04
67279;DHT22;54193;53.746;10.058;2022-09-30T00:14:21;8.26;96.17
67279;DHT22;54193;53.746;10.058;2022-09-30T00:17:07;8.26;96.06
67279;DHT22;54193;53.746;10.058;2022-09-30T00:19:52;8.28;96.18
67279;DHT22;54193;53.746;10.058;2022-09-30T00:22:38;8.41;96.54
67279;DHT22;54193;53.746;10.058;2022-09-30T00:25:24;8.52;96.66
67279;DHT22;54193;53.746;10.058;2022-09-30T00:28:09;8.58;96.62
67279;DHT22;54193;53.746;10.058;2022-09-30T00:31:04;8.65;96.71
67279;DHT22;54193;53.746;10.058;2022-09-30T00:33:50;8.62;96.63
67279;DHT22;54193;53.746;10.058;2022-09-30T00:36:53;8.65;96.61
67279;DHT22;54193;53.746;10.058;2022-09-30T00:39:40;8.72;96.64
67279;DHT22;54193;53.746;10.058;2022-09-30T00:42:25;8.73;96.67
67279;DHT22;54193;53.746;10.058;2022-09-30T00:45:14;8.76;96.66
67279;DHT22;54193;53.746;10.058;2022-09-30T00:48:07;8.73;96.57
67279;DHT22;54193;53.746;10.058;2022-09-30T00:50:55;8.73;96.66
67279;DHT22;54193;53.746;10.058;2022-09-30T00:53:50;8.76;96.67
67279;DHT22;54193;53.746;10.058;2022-09-30T00:56:40;8.76;96.59
67279;DHT22;54193;53.746;10.058;2022-09-30T00:59:40;8.80;96.58
67279;DHT22;54193;53.746;10.058;2022-09-30T01:02:27;8.75;96.49
67279;DHT22;54193;53.746;10.058;2022-09-30T01:05:13;8.65;96.28
67279;DHT22;54193;53.746;10.058;2022-09-30T01:08:02;8.57;96.31
67279;DHT22;54193;53.746;10.058;2022-09-30T01:10:48;8.55;96.28
67279;DHT22;54193;53.746;10.058;2022-09-30T01:13:35;8.44;96.14
67279;DHT22;54193;53.746;10.058;2022-09-30T01:16:36;8.42;96.17
67279;DHT22;54193;53.746;10.058;2022-09-30T01:29:15;8.27;96.19
67279;DHT22;54193;53.746;10.058;2022-09-30T01:35:42;8.23;96.08
67279;DHT22;54193;53.746;10.058;2022-09-30T01:38:44;8.23;96.18
67279;DHT22;54193;53.746;10.058;2022-09-30T01:41:41;8.19;96.36
67279;DHT22;54193;53.746;10.058;2022-09-30T01:47:38;8.13;96.20
67279;DHT22;54193;53.746;10.058;2022-09-30T01:50:40;8.10;96.23
67279;DHT22;54193;53.746;10.058;2022-09-30T01:56:26;7.83;96.21
67279;DHT22;54193;53.746;10.058;2022-09-30T01:59:24;7.79;95.92
67279;DHT22;54193;53.746;10.058;2022-09-30T02:02:19;7.73;96.27
67279;DHT22;54193;53.746;10.058;2022-09-30T02:05:11;7.65;95.93
67279;DHT22;54193;53.746;10.058;2022-09-30T02:08:03;7.58;95.76
67279;DHT22;54193;53.746;10.058;2022-09-30T02:10:56;7.51;95.70
67279;DHT22;54193;53.746;10.058;2022-09-30T02:13:54;7.45;95.82
67279;DHT22;54193;53.746;10.058;2022-09-30T02:16:50;7.50;95.85
67279;DHT22;54193;53.746;10.058;2022-09-30T02:19:41;7.66;96.00
67279;DHT22;54193;53.746;10.058;2022-09-30T02:22:32;7.72;96.09
67279;DHT22;54193;53.746;10.058;2022-09-30T02:25:28;7.79;96.19
67279;DHT22;54193;53.746;10.058;2022-09-30T02:28:20;7.75;96.30
67279;DHT22;54193;53.746;10.058;2022-09-30T02:31:08;7.76;96.32
67279;DHT22;54193;53.746;10.058;2022-09-30T02:34:01;7.72;96.31
67279;DHT22;54193;53.746;10.058;2022-09-30T02:40:02;7.78;96.33
67279;DHT22;54193;53.746;10.058;2022-09-30T02:42:50;7.86;96.39
67279;DHT22;54193;53.746;10.058;2022-09-30T02:45:48;7.87;96.49
67279;DHT22;54193;53.746;10.058;2022-09-30T02:51:44;7.85;96.61
67279;DHT22;54193;53.746;10.058;2022-09-30T03:00:24;7.83;96.64
67279;DHT22;54193;53.746;10.058;2022-09-30T03:03:17;7.86;96.67
67279;DHT22;54193;53.746;10.058;2022-09-30T03:06:04;7.87;96.57
67279;DHT22;54193;53.746;10.058;2022-09-30T03:08:51;7.86;96.47
67279;DHT22;54193;53.746;10.058;2022-09-30T03:11:37;7.89;96.61
67279;DHT22;54193;53.746;10.058;2022-09-30T03:14:44;7.96;96.73
67279;DHT22;54193;53.746;10.058;2022-09-30T03:21:07;8.00;96.96
67279;DHT22;54193;53.746;10.058;2022-09-30T03:24:29;8.09;97.10
67279;DHT22;54193;53.746;10.058;2022-09-30T03:30:10;8.17;97.07
67279;DHT22;54193;53.746;10.058;2022-09-30T03:33:16;8.16;97.20
67279;DHT22;54193;53.746;10.058;2022-09-30T03:36:15;8.19;97.12
67279;DHT22;54193;53.746;10.058;2022-09-30T03:42:18;8.19;97.10
67279;DHT22;54193;53.746;10.058;2022-09-30T03:45:28;8.17;97.16
67279;DHT22;54193;53.746;10.058;2022-09-30T03:48:16;8.28;97.12
67279;DHT22;54193;53.746;10.058;2022-09-30T03:51:04;8.26;97.10
67279;DHT22;54193;53.746;10.058;2022-09-30T03:53:50;8.30;97.12
67279;DHT22;54193;53.746;10.058;2022-09-30T03:56:38;8.27;97.08
67279;DHT22;54193;53.746;10.058;2022-09-30T03:59:26;8.28;97.05
67279;DHT22;54193;53.746;10.058;2022-09-30T04:02:12;8.27;97.05
67279;DHT22;54193;53.746;10.058;2022-09-30T04:04:58;8.30;97.03
67279;DHT22;54193;53.746;10.058;2022-09-30T04:07:44;8.24;96.98
67279;DHT22;54193;53.746;10.058;2022-09-30T04:10:30;8.21;96.93
67279;DHT22;54193;53.746;10.058;2022-09-30T04:13:16;8.20;96.96
67279;DHT22;54193;53.746;10.058;2022-09-30T04:16:01;8.27;96.96
67279;DHT22;54193;53.746;10.058;2022-09-30T04:18:47;8.37;97.05
67279;DHT22;54193;53.746;10.058;2022-09-30T04:21:33;8.38;97.10
67279;DHT22;54193;53.746;10.058;2022-09-30T04:24:19;8.40;97.10
67279;DHT22;54193;53.746;10.058;2022-09-30T04:27:05;8.40;97.15
67279;DHT22;54193;53.746;10.058;2022-09-30T04:29:51;8.40;97.15
67279;DHT22;54193;53.746;10.058;2022-09-30T04:32:36;8.42;97.11
67279;DHT22;54193;53.746;10.058;2022-09-30T04:35:22;8.44;97.11
67279;DHT22;54193;53.746;10.058;2022-09-30T04:38:08;8.49;97.16
67279;DHT22;54193;53.746;10.058;2022-09-30T04:40:54;8.48;97.16
67279;DHT22;54193;53.746;10.058;2022-09-30T04:43:41;8.52;97.20
67279;DHT22;54193;53.746;10.058;2022-09-30T04:46:29;8.51;97.25
67279;DHT22;54193;53.746;10.058;2022-09-30T04:49:15;8.54;97.22
67279;DHT22;54193;53.746;10.058;2022-09-30T04:52:00;8.54;97.20
67279;DHT22;54193;53.746;10.058;2022-09-30T04:54:46;8.52;97.16
67279;DHT22;54193;53.746;10.058;2022-09-30T04:57:31;8.58;97.17
67279;DHT22;54193;53.746;10.058;2022-09-30T05:00:17;8.54;97.19
67279;DHT22;54193;53.746;10.058;2022-09-30T05:03:03;8.54;97.05
67279;DHT22;54193;53.746;10.058;2022-09-30T05:05:49;8.52;97.03
67279;DHT22;54193;53.746;10.058;2022-09-30T05:08:35;8.51;97.08
67279;DHT22;54193;53.746;10.058;2022-09-30T05:11:21;8.47;97.08
67279;DHT22;54193;53.746;10.058;2022-09-30T05:14:07;8.52;97.15
67279;DHT22;54193;53.746;10.058;2022-09-30T05:16:55;8.48;97.08
67279;DHT22;54193;53.746;10.058;2022-09-30T05:19:41;8.52;97.12
67279;DHT22;54193;53.746;10.058;2022-09-30T05:22:27;8.57;97.16
67279;DHT22;54193;53.746;10.058;2022-09-30T05:25:13;8.58;97.10
67279;DHT22;54193;53.746;10.058;2022-09-30T05:27:59;8.59;97.13
67279;DHT22;54193;53.746;10.058;2022-09-30T05:30:46;8.62;97.17
67279;DHT22;54193;53.746;10.058;2022-09-30T05:33:32;8.61;97.05
67279;DHT22;54193;53.746;10.058;2022-09-30T05:36:19;8.65;97.16
67279;DHT22;54193;53.746;10.058;2022-09-30T05:39:05;8.68;97.14
67279;DHT22;54193;53.746;10.058;2022-09-30T05:41:50;8.62;97.04
67279;DHT22;54193;53.746;10.058;2022-09-30T05:44:36;8.69;97.14
67279;DHT22;54193;53.746;10.058;2022-09-30T05:47:22;8.73;97.19
67279;DHT22;54193;53.746;10.058;2022-09-30T05:50:08;8.79;97.09
67279;DHT22;54193;53.746;10.058;2022-09-30T05:52:54;8.82;97.11
67279;DHT22;54193;53.746;10.058;2022-09-30T05:55:44;8.86;97.11
67279;DHT22;54193;53.746;10.058;2022-09-30T05:58:31;8.86;97.02
67279;DHT22;54193;53.746;10.058;2022-09-30T06:01:17;8.86;96.89
67279;DHT22;54193;53.746;10.058;2022-09-30T06:04:02;8.82;96.68
67279;DHT22;54193;53.746;10.058;2022-09-30T06:06:48;8.76;96.57
67279;DHT22;54193;53.746;10.058;2022-09-30T06:09:33;8.68;96.52
67279;DHT22;54193;53.746;10.058;2022-09-30T06:12:19;8.65;96.52
67279;DHT22;54193;53.746;10.058;2022-09-30T06:15:05;8.65;96.35
67279;DHT22;54193;53.746;10.058;2022-09-30T06:17:52;8.65;96.48
67279;DHT22;54193;53.746;10.058;2022-09-30T06:20:38;8.73;96.47
67279;DHT22;54193;53.746;10.058;2022-09-30T06:23:24;8.82;96.57
67279;DHT22;54193;53.746;10.058;2022-09-30T06:26:10;8.95;96.45
67279;DHT22;54193;53.746;10.058;2022-09-30T06:28:57;9.10;96.45
67279;DHT22;54193;53.746;10.058;2022-09-30T06:31:43;9.24;96.46
67279;DHT22;54193;53.746;10.058;2022-09-30T06:34:29;9.30;96.35
67279;DHT22;54193;53.746;10.058;2022-09-30T06:37:14;9.20;96.06
67279;DHT22;54193;53.746;10.058;2022-09-30T06:40:00;9.07;95.92
67279;DHT22;54193;53.746;10.058;2022-09-30T06:42:47;9.00;95.83
67279;DHT22;54193;53.746;10.058;2022-09-30T06:45:34;8.99;95.87
67279;DHT22;54193;53.746;10.058;2022-09-30T06:48:20;9.00;95.70
67279;DHT22;54193;53.746;10.058;2022-09-30T06:51:07;9.14;95.78
67279;DHT22;54193;53.746;10.058;2022-09-30T06:53:55;9.06;95.74
67279;DHT22;54193;53.746;10.058;2022-09-30T06:56:41;9.09;95.63
67279;DHT22;54193;53.746;10.058;2022-09-30T06:59:28;9.24;95.64
67279;DHT22;54193;53.746;10.058;2022-09-30T07:02:13;9.41;95.52
67279;DHT22;54193;53.746;10.058;2022-09-30T07:04:59;9.48;95.31
67279;DHT22;54193;53.746;10.058;2022-09-30T07:07:47;9.50;95.22
67279;DHT22;54193;53.746;10.058;2022-09-30T07:10:33;9.67;95.16
67279;DHT22;54193;53.746;10.058;2022-09-30T07:13:19;9.77;95.11
67279;DHT22;54193;53.746;10.058;2022-09-30T07:16:05;9.75;94.56
67279;DHT22;54193;53.746;10.058;2022-09-30T07:18:50;9.92;94.95
67279;DHT22;54193;53.746;10.058;2022-09-30T07:21:36;10.14;94.72
67279;DHT22;54193;53.746;10.058;2022-09-30T07:24:22;10.26;93.29
67279;DHT22;54193;53.746;10.058;2022-09-30T07:27:07;10.47;93.97
67279;DHT22;54193;53.746;10.058;2022-09-30T07:29:53;10.65;93.91
67279;DHT22;54193;53.746;10.058;2022-09-30T07:32:39;10.62;92.78
67279;DHT22;54193;53.746;10.058;2022-09-30T07:35:25;10.61;92.10
67279;DHT22;54193;53.746;10.058;2022-09-30T07:38:11;11.03;93.59
67279;DHT22;54193;53.746;10.058;2022-09-30T07:41:04;11.38;91.56
67279;DHT22;54193;53.746;10.058;2022-09-30T07:43:53;11.61;89.93
67279;DHT22;54193;53.746;10.058;2022-09-30T07:46:42;11.24;89.14
67279;DHT22;54193;53.746;10.058;2022-09-30T07:49:28;11.68;90.28
67279;DHT22;54193;53.746;10.058;2022-09-30T07:52:14;12.01;88.55
67279;DHT22;54193;53.746;10.058;2022-09-30T07:55:00;11.74;88.02
67279;DHT22;54193;53.746;10.058;2022-09-30T07:57:45;12.32;87.90
67279;DHT22;54193;53.746;10.058;2022-09-30T08:00:31;12.29;88.59
67279;DHT22;54193;53.746;10.058;2022-09-30T08:03:16;12.40;88.02
67279;DHT22;54193;53.746;10.058;2022-09-30T08:06:05;12.64;87.61
67279;DHT22;54193;53.746;10.058;2022-09-30T08:08:54;12.80;87.58
67279;DHT22;54193;53.746;10.058;2022-09-30T08:11:40;12.87;85.83
67279;DHT22;54193;53.746;10.058;2022-09-30T08:14:27;12.89;85.11
67279;DHT22;54193;53.746;10.058;2022-09-30T08:17:12;12.95;84.44
67279;DHT22;54193;53.746;10.058;2022-09-30T08:19:59;13.84;83.37
67279;DHT22;54193;53.746;10.058;2022-09-30T08:22:45;13.35;82.26
67279;DHT22;54193;53.746;10.058;2022-09-30T08:25:30;13.67;82.59
67279;DHT22;54193;53.746;10.058;2022-09-30T08:28:16;14.15;80.00
67279;DHT22;54193;53.746;10.058;2022-09-30T08:31:07;14.07;79.77
67279;DHT22;54193;53.746;10.058;2022-09-30T08:33:54;15.00;78.46
67279;DHT22;54193;53.746;10.058;2022-09-30T08:36:40;15.55;74.93
67279;DHT22;54193;53.746;10.058;2022-09-30T08:39:26;15.21;76.84
67279;DHT22;54193;53.746;10.058;2022-09-30T08:42:21;15.73;73.91
67279;DHT22;54193;53.746;10.058;2022-09-30T08:54:01;16.62;71.09
67279;DHT22;54193;53.746;10.058;2022-09-30T08:56:47;16.77;71.13
67279;DHT22;54193;53.746;10.058;2022-09-30T08:59:37;16.53;70.23
67279;DHT22;54193;53.746;10.058;2022-09-30T09:02:26;16.41;70.64
67279;DHT22;54193;53.746;10.058;2022-09-30T09:08:31;16.41;69.15
67279;DHT22;54193;53.746;10.058;2022-09-30T09:14:53;18.17;66.91
67279;DHT22;54193;53.746;10.058;2022-09-30T09:20:58;19.10;63.77
67279;DHT22;54193;53.746;10.058;2022-09-30T09:23:45;18.83;64.06
67279;DHT22;54193;53.746;10.058;2022-09-30T09:26:35;19.40;62.16
67279;DHT22;54193;53.746;10.058;2022-09-30T09:32:31;19.83;61.65
67279;DHT22;54193;53.746;10.058;2022-09-30T09:35:26;20.12;60.59
67279;DHT22;54193;53.746;10.058;2022-09-30T09:45:47;21.13;55.99
67279;DHT22;54193;53.746;10.058;2022-09-30T09:48:25;18.81;60.68
67279;DHT22;54193;53.746;10.058;2022-09-30T09:51:27;18.30;64.15
67279;DHT22;54193;53.746;10.058;2022-09-30T09:54:17;17.02;65.92
67279;DHT22;54193;53.746;10.058;2022-09-30T09:57:07;16.79;67.78
67279;DHT22;54193;53.746;10.058;2022-09-30T09:59:59;16.35;67.89
67279;DHT22;54193;53.746;10.058;2022-09-30T10:02:57;15.67;70.01
67279;DHT22;54193;53.746;10.058;2022-09-30T10:05:43;15.55;70.11
67279;DHT22;54193;53.746;10.058;2022-09-30T10:08:33;16.04;69.52
67279;DHT22;54193;53.746;10.058;2022-09-30T10:11:22;15.55;69.99
67279;DHT22;54193;53.746;10.058;2022-09-30T10:14:16;15.69;69.82
67279;DHT22;54193;53.746;10.058;2022-09-30T10:17:04;15.45;70.16
67279;DHT22;54193;53.746;10.058;2022-09-30T10:19:52;15.49;70.61
67279;DHT22;54193;53.746;10.058;2022-09-30T10:22:39;15.45;70.52
67279;DHT22;54193;53.746;10.058;2022-09-30T10:25:25;15.28;71.31
67279;DHT22;54193;53.746;10.058;2022-09-30T10:28:23;15.36;71.06
67279;DHT22;54193;53.746;10.058;2022-09-30T10:31:14;15.27;71.13
67279;DHT22;54193;53.746;10.058;2022-09-30T10:36:58;15.29;69.23
67279;DHT22;54193;53.746;10.058;2022-09-30T10:39:56;15.50;69.53
67279;DHT22;54193;53.746;10.058;2022-09-30T10:42:45;15.74;69.70
67279;DHT22;54193;53.746;10.058;2022-09-30T10:45:35;15.77;68.80
67279;DHT22;54193;53.746;10.058;2022-09-30T10:48:23;15.86;68.98
67279;DHT22;54193;53.746;10.058;2022-09-30T10:51:23;15.59;69.68
67279;DHT22;54193;53.746;10.058;2022-09-30T10:57:37;15.35;70.01
67279;DHT22;54193;53.746;10.058;2022-09-30T11:00:23;15.52;70.38
67279;DHT22;54193;53.746;10.058;2022-09-30T11:03:14;15.39;69.92
67279;DHT22;54193;53.746;10.058;2022-09-30T11:06:01;15.55;69.11
67279;DHT22;54193;53.746;10.058;2022-09-30T11:08:56;15.49;69.86
67279;DHT22;54193;53.746;10.058;2022-09-30T11:11:50;15.53;69.65
67279;DHT22;54193;53.746;10.058;2022-09-30T11:14:52;15.53;69.72
67279;DHT22;54193;53.746;10.058;2022-09-30T11:21:02;15.74;68.00
67279;DHT22;54193;53.746;10.058;2022-09-30T11:23:58;15.62;68.85
67279;DHT22;54193;53.746;10.058;2022-09-30T11:30:19;15.42;69.99
67279;DHT22;54193;53.746;10.058;2022-09-30T11:36:22;15.73;69.98
67279;DHT22;54193;53.746;10.058;2022-09-30T11:42:18;15.77;69.77
67279;DHT22;54193;53.746;10.058;2022-09-30T11:59:45;15.98;67.81
67279;DHT22;54193;53.746;10.058;2022-09-30T12:05:36;16.21;64.99
67279;DHT22;54193;53.746;10.058;2022-09-30T12:08:28;16.20;64.71
67279;DHT22;54193;53.746;10.058;2022-09-30T12:11:22;16.14;64.57
67279;DHT22;54193;53.746;10.058;2022-09-30T12:14:22;16.18;64.78
67279;DHT22;54193;53.746;10.058;2022-09-30T12:17:38;16.01;64.77
67279;DHT22;54193;53.746;10.058;2022-09-30T12:20:31;15.73;65.98
67279;DHT22;54193;53.746;10.058;2022-09-30T12:26:13;16.00;65.26
67279;DHT22;54193;53.746;10.058;2022-09-30T12:29:04;16.01;65.41
67279;DHT22;54193;53.746;10.058;2022-09-30T12:32:16;16.04;65.44
67279;DHT22;54193;53.746;10.058;2022-09-30T12:35:51;16.07;65.28
67279;DHT22;54193;53.746;10.058;2022-09-30T12:42:16;16.31;64.22
67279;DHT22;54193;53.746;10.058;2022-09-30T12:48:14;16.31;65.37
67279;DHT22;54193;53.746;10.058;2022-09-30T12:51:02;16.00;64.57
67279;DHT22;54193;53.746;10.058;2022-09-30T12:53:50;15.59;65.10
67279;DHT22;54193;53.746;10.058;2022-09-30T12:56:45;15.42;66.74
67279;DHT22;54193;53.746;10.058;2022-09-30T12:59:34;15.34;66.97
67279;DHT22;54193;53.746;10.058;2022-09-30T13:02:28;15.10;66.96
67279;DHT22;54193;53.746;10.058;2022-09-30T13:08:40;15.21;68.36
67279;DHT22;54193;53.746;10.058;2022-09-30T13:11:35;15.63;66.68
67279;DHT22;54193;53.746;10.058;2022-09-30T13:14:35;16.04;65.01
67279;DHT22;54193;53.746;10.058;2022-09-30T13:17:24;16.11;62.85
67279;DHT22;54193;53.746;10.058;2022-09-30T13:26:41;16.05;62.00
67279;DHT22;54193;53.746;10.058;2022-09-30T13:29:33;16.05;61.65
67279;DHT22;54193;53.746;10.058;2022-09-30T13:32:34;16.04;61.90
67279;DHT22;54193;53.746;10.058;2022-09-30T13:38:37;16.05;62.60
67279;DHT22;54193;53.746;10.058;2022-09-30T13:41:23;15.98;62.55
67279;DHT22;54193;53.746;10.058;2022-09-30T13:44:16;15.71;62.56
67279;DHT22;54193;53.746;10.058;2022-09-30T13:47:21;15.65;64.64
67279;DHT22;54193;53.746;10.058;2022-09-30T13:50:20;15.71;62.66
67279;DHT22;54193;53.746;10.058;2022-09-30T13:53:14;15.60;62.91
67279;DHT22;54193;53.746;10.058;2022-09-30T13:56:06;15.32;63.19
67279;DHT22;54193;53.746;10.058;2022-09-30T14:01:50;15.49;63.77
67279;DHT22;54193;53.746;10.058;2022-09-30T14:05:04;15.60;64.13
67279;DHT22;54193;53.746;10.058;2022-09-30T14:11:06;15.34;64.93
67279;DHT22;54193;53.746;10.058;2022-09-30T14:20:13;15.52;63.56
67279;DHT22;54193;53.746;10.058;2022-09-30T14:23:03;15.63;62.14
67279;DHT22;54193;53.746;10.058;2022-09-30T14:26:12;15.57;63.35
67279;DHT22;54193;53.746;10.058;2022-09-30T14:29:53;15.59;62.83
67279;DHT22;54193;53.746;10.058;2022-09-30T14:32:19;15.53;62.42
67279;DHT22;54193;53.746;10.058;2022-09-30T14:35:13;15.46;62.94
67279;DHT22;54193;53.746;10.058;2022-09-30T14:38:02;15.46;63.02
67279;DHT22;54193;53.746;10.058;2022-09-30T14:40:55;15.42;63.39
67279;DHT22;54193;53.746;10.058;2022-09-30T14:43:43;15.36;63.77
67279;DHT22;54193;53.746;10.058;2022-09-30T14:46:37;15.28;64.57
67279;DHT22;54193;53.746;10.058;2022-09-30T14:49:24;15.31;65.53
67279;DHT22;54193;53.746;10.058;2022-09-30T14:52:40;15.31;63.41
67279;DHT22;54193;53.746;10.058;2022-09-30T14:55:34;15.25;63.62
67279;DHT22;54193;53.746;10.058;2022-09-30T14:58:28;15.24;64.01
67279;DHT22;54193;53.746;10.058;2022-09-30T15:01:16;15.22;64.29
67279;DHT22;54193;53.746;10.058;2022-09-30T15:04:24;15.12;64.91
67279;DHT22;54193;53.746;10.058;2022-09-30T15:07:11;15.01;64.59
67279;DHT22;54193;53.746;10.058;2022-09-30T15:10:00;14.91;64.92
67279;DHT22;54193;53.746;10.058;2022-09-30T15:12:47;14.85;65.24
67279;DHT22;54193;53.746;10.058;2022-09-30T15:15:36;14.81;65.68
67279;DHT22;54193;53.746;10.058;2022-09-30T15:21:15;14.77;66.29
67279;DHT22;54193;53.746;10.058;2022-09-30T15:24:01;14.85;65.84
67279;DHT22;54193;53.746;10.058;2022-09-30T15:26:48;14.83;65.49
67279;DHT22;54193;53.746;10.058;2022-09-30T15:29:33;14.81;66.43
67279;DHT22;54193;53.746;10.058;2022-09-30T15:32:21;14.76;66.38
67279;DHT22;54193;53.746;10.058;2022-09-30T15:35:16;14.70;66.59
67279;DHT22;54193;53.746;10.058;2022-09-30T15:38:07;14.62;65.93
67279;DHT22;54193;53.746;10.058;2022-09-30T15:41:06;14.52;66.75
67279;DHT22;54193;53.746;10.058;2022-09-30T15:43:52;14.47;66.90
67279;DHT22;54193;53.746;10.058;2022-09-30T15:46:38;14.47;66.29
67279;DHT22;54193;53.746;10.058;2022-09-30T15:49:30;14.53;66.30
67279;DHT22;54193;53.746;10.058;2022-09-30T15:52:26;14.55;66.73
67279;DHT22;54193;53.746;10.058;2022-09-30T15:55:36;14.55;66.70
67279;DHT22;54193;53.746;10.058;2022-09-30T15:58:39;14.47;66.72
67279;DHT22;54193;53.746;10.058;2022-09-30T16:01:36;14.29;67.09
67279;DHT22;54193;53.746;10.058;2022-09-30T16:04:24;14.32;66.98
67279;DHT22;54193;53.746;10.058;2022-09-30T16:07:13;14.24;67.19
67279;DHT22;54193;53.746;10.058;2022-09-30T16:10:02;14.19;67.67
67279;DHT22;54193;53.746;10.058;2022-09-30T16:12:48;14.15;67.53
67279;DHT22;54193;53.746;10.058;2022-09-30T16:15:36;14.04;68.31
67279;DHT22;54193;53.746;10.058;2022-09-30T16:18:26;13.92;68.15
67279;DHT22;54193;53.746;10.058;2022-09-30T16:21:42;13.88;68.56
67279;DHT22;54193;53.746;10.058;2022-09-30T16:27:20;13.66;69.13
67279;DHT22;54193;53.746;10.058;2022-09-30T16:30:12;13.59;69.56
67279;DHT22;54193;53.746;10.058;2022-09-30T16:33:03;13.49;69.93
67279;DHT22;54193;53.746;10.058;2022-09-30T16:35:49;13.39;70.51
67279;DHT22;54193;53.746;10.058;2022-09-30T16:38:34;13.27;70.74
67279;DHT22;54193;53.746;10.058;2022-09-30T16:41:21;13.23;71.48
67279;DHT22;54193;53.746;10.058;2022-09-30T16:44:08;13.08;71.42
67279;DHT22;54193;53.746;10.058;2022-09-30T16:46:54;13.01;71.46
67279;DHT22;54193;53.746;10.058;2022-09-30T16:49:39;12.95;71.68
67279;DHT22;54193;53.746;10.058;2022-09-30T16:52:27;12.87;72.22
67279;DHT22;54193;53.746;10.058;2022-09-30T16:55:12;12.73;72.64
67279;DHT22;54193;53.746;10.058;2022-09-30T16:57:58;12.60;72.83
67279;DHT22;54193;53.746;10.058;2022-09-30T17:00:44;12.54;73.33
67279;DHT22;54193;53.746;10.058;2022-09-30T17:03:32;12.47;73.27
67279;DHT22;54193;53.746;10.058;2022-09-30T17:06:20;12.40;72.95
67279;DHT22;54193;53.746;10.058;2022-09-30T17:09:10;12.34;73.41
67279;DHT22;54193;53.746;10.058;2022-09-30T17:11:55;12.29;73.72
67279;DHT22;54193;53.746;10.058;2022-09-30T17:14:42;12.16;74.15
67279;DHT22;54193;53.746;10.058;2022-09-30T17:17:28;12.08;74.54
67279;DHT22;54193;53.746;10.058;2022-09-30T17:20:14;12.01;74.47
67279;DHT22;54193;53.746;10.058;2022-09-30T17:22:59;11.91;75.17
67279;DHT22;54193;53.746;10.058;2022-09-30T17:25:45;11.79;75.24
67279;DHT22;54193;53.746;10.058;2022-09-30T17:28:31;11.67;76.08
67279;DHT22;54193;53.746;10.058;2022-09-30T17:31:19;11.51;76.78
67279;DHT22;54193;53.746;10.058;2022-09-30T17:34:04;11.47;77.23
67279;DHT22;54193;53.746;10.058;2022-09-30T17:36:52;11.43;76.86
67279;DHT22;54193;53.746;10.058;2022-09-30T17:39:39;11.47;76.56
67279;DHT22;54193;53.746;10.058;2022-09-30T17:42:25;11.44;76.54
67279;DHT22;54193;53.746;10.058;2022-09-30T17:45:29;11.40;76.93
67279;DHT22;54193;53.746;10.058;2022-09-30T17:48:16;11.36;77.11
67279;DHT22;54193;53.746;10.058;2022-09-30T17:51:02;11.26;77.50
67279;DHT22;54193;53.746;10.058;2022-09-30T17:53:47;11.24;77.58
67279;DHT22;54193;53.746;10.058;2022-09-30T17:56:34;11.26;77.48
67279;DHT22;54193;53.746;10.058;2022-09-30T17:59:19;11.24;77.25
67279;DHT22;54193;53.746;10.058;2022-09-30T18:02:05;11.18;77.60
67279;DHT22;54193;53.746;10.058;2022-09-30T18:04:51;11.15;77.92
67279;DHT22;54193;53.746;10.058;2022-09-30T18:07:39;11.10;77.86
67279;DHT22;54193;53.746;10.058;2022-09-30T18:10:25;11.02;78.01
67279;DHT22;54193;53.746;10.058;2022-09-30T18:13:11;10.92;78.49
67279;DHT22;54193;53.746;10.058;2022-09-30T18:15:56;10.86;78.93
67279;DHT22;54193;53.746;10.058;2022-09-30T18:18:46;10.78;78.92
67279;DHT22;54193;53.746;10.058;2022-09-30T18:21:33;10.76;79.09
67279;DHT22;54193;53.746;10.058;2022-09-30T18:24:19;10.74;79.49
67279;DHT22;54193;53.746;10.058;2022-09-30T18:27:24;10.76;79.06
67279;DHT22;54193;53.746;10.058;2022-09-30T18:30:10;10.75;78.82
67279;DHT22;54193;53.746;10.058;2022-09-30T18:32:56;10.76;78.95
67279;DHT22;54193;53.746;10.058;2022-09-30T18:35:44;10.75;79.31
67279;DHT22;54193;53.746;10.058;2022-09-30T18:38:32;10.74;79.04
67279;DHT22;54193;53.746;10.058;2022-09-30T18:41:18;10.64;79.46
67279;DHT22;54193;53.746;10.058;2022-09-30T18:44:04;10.58;79.90
67279;DHT22;54193;53.746;10.058;2022-09-30T18:46:50;10.54;79.62
67279;DHT22;54193;53.746;10.058;2022-09-30T18:49:35;10.53;80.16
67279;DHT22;54193;53.746;10.058;2022-09-30T18:52:21;10.48;80.17
67279;DHT22;54193;53.746;10.058;2022-09-30T18:55:07;10.45;80.51
67279;DHT22;54193;53.746;10.058;2022-09-30T18:57:54;10.48;80.25
67279;DHT22;54193;53.746;10.058;2022-09-30T19:00:40;10.45;79.97
67279;DHT22;54193;53.746;10.058;2022-09-30T19:03:29;10.44;80.35
67279;DHT22;54193;53.746;10.058;2022-09-30T19:06:15;10.45;80.08
67279;DHT22;54193;53.746;10.058;2022-09-30T19:09:02;10.43;80.15
67279;DHT22;54193;53.746;10.058;2022-09-30T19:11:47;10.45;80.16
67279;DHT22;54193;53.746;10.058;2022-09-30T19:14:35;10.43;79.87
67279;DHT22;54193;53.746;10.058;2022-09-30T19:17:22;10.37;80.47
67279;DHT22;54193;53.746;10.058;2022-09-30T19:20:08;10.38;80.36
67279;DHT22;54193;53.746;10.058;2022-09-30T19:22:54;10.40;80.49
67279;DHT22;54193;53.746;10.058;2022-09-30T19:25:40;10.33;80.47
67279;DHT22;54193;53.746;10.058;2022-09-30T19:28:28;10.32;80.40
67279;DHT22;54193;53.746;10.058;2022-09-30T19:31:16;10.30;80.48
67279;DHT22;54193;53.746;10.058;2022-09-30T19:34:05;10.34;80.18
67279;DHT22;54193;53.746;10.058;2022-09-30T19:36:53;10.37;79.82
67279;DHT22;54193;53.746;10.058;2022-09-30T19:39:40;10.37;80.01
67279;DHT22;54193;53.746;10.058;2022-09-30T19:42:26;10.36;79.93
67279;DHT22;54193;53.746;10.058;2022-09-30T19:45:12;10.32;79.67
67279;DHT22;54193;53.746;10.058;2022-09-30T19:48:00;10.29;80.16
67279;DHT22;54193;53.746;10.058;2022-09-30T19:50:46;10.30;80.05
67279;DHT22;54193;53.746;10.058;2022-09-30T19:53:41;10.26;79.69
67279;DHT22;54193;53.746;10.058;2022-09-30T19:56:28;10.20;79.87
67279;DHT22;54193;53.746;10.058;2022-09-30T19:59:15;10.21;80.09
67279;DHT22;54193;53.746;10.058;2022-09-30T20:02:01;10.14;79.73
67279;DHT22;54193;53.746;10.058;2022-09-30T20:04:46;10.13;80.18
67279;DHT22;54193;53.746;10.058;2022-09-30T20:07:32;10.13;80.18
67279;DHT22;54193;53.746;10.058;2022-09-30T20:10:19;10.07;80.54